createdAt,value
2023-02-14T00:00:50.702Z,54.90
2023-02-14T00:03:17.868Z,55.43
2023-02-14T00:05:44.844Z,57.90
2023-02-14T00:08:11.886Z,58.23
2023-02-14T00:10:38.881Z,57.67
2023-02-14T00:13:05.899Z,62.93
2023-02-14T00:15:32.875Z,64.63
2023-02-14T00:18:00.122Z,56.37
2023-02-14T00:20:28.223Z,61.40
2023-02-14T00:22:55.552Z,53.77
2023-02-14T00:25:22.971Z,57.03
2023-02-14T00:27:50.071Z,54.47
2023-02-14T00:30:17.234Z,65.80
2023-02-14T00:32:44.466Z,58.90
2023-02-14T00:35:11.917Z,59.13
2023-02-14T00:37:41.230Z,56.03
2023-02-14T00:40:09.100Z,55.50
2023-02-14T00:42:36.094Z,62.37
2023-02-14T00:45:03.844Z,52.57
2023-02-14T00:47:30.855Z,52.40
2023-02-14T00:50:02.827Z,57.23
2023-02-14T00:52:31.488Z,60.97
2023-02-14T00:54:58.854Z,60.87
2023-02-14T00:57:26.044Z,54.27
2023-02-14T00:59:53.074Z,54.67
2023-02-14T01:02:21.252Z,57.27
2023-02-14T01:04:48.200Z,55.73
2023-02-14T01:07:15.273Z,61.73
2023-02-14T01:09:42.368Z,52.23
2023-02-14T01:12:09.507Z,63.60
2023-02-14T01:14:36.613Z,54.57
2023-02-14T01:17:03.832Z,57.07
2023-02-14T01:19:30.903Z,60.30
2023-02-14T01:21:57.953Z,65.80
2023-02-14T01:24:26.392Z,57.13
2023-02-14T01:26:53.442Z,57.83
2023-02-14T01:29:20.484Z,61.60
2023-02-14T01:31:49.304Z,58.43
2023-02-14T01:34:17.595Z,61.07
2023-02-14T01:36:47.061Z,61.07
2023-02-14T01:39:15.778Z,54.30
2023-02-14T01:41:50.008Z,62.90
2023-02-14T01:44:16.961Z,59.87
2023-02-14T01:46:45.966Z,56.77
2023-02-14T01:49:22.243Z,58.07
2023-02-14T01:51:54.104Z,56.20
2023-02-14T01:54:25.923Z,59.90
2023-02-14T01:56:58.789Z,59.87
2023-02-14T01:59:31.268Z,54.83
2023-02-14T02:01:58.597Z,57.40
2023-02-14T02:04:30.455Z,57.97
2023-02-14T02:07:04.008Z,58.23
2023-02-14T02:09:46.958Z,55.83
2023-02-14T02:12:14.109Z,59.83
2023-02-14T02:14:42.980Z,66.30
2023-02-14T02:17:52.183Z,55.73
2023-02-14T02:20:40.291Z,59.40
2023-02-14T02:23:32.408Z,58.20
2023-02-14T02:26:35.003Z,61.37
2023-02-14T02:29:26.821Z,55.57
2023-02-14T02:32:32.866Z,57.77
2023-02-14T02:35:15.899Z,60.07
2023-02-14T02:38:01.739Z,61.73
2023-02-14T02:40:39.541Z,60.23
2023-02-14T02:43:42.190Z,61.63
2023-02-14T02:46:49.940Z,61.43
2023-02-14T02:49:44.718Z,59.93
2023-02-14T02:52:44.731Z,59.57
2023-02-14T02:56:12.160Z,71.53
2023-02-14T02:58:45.857Z,62.97
2023-02-14T03:01:16.695Z,54.87
2023-02-14T03:04:06.589Z,60.50
2023-02-14T03:06:34.320Z,64.20
2023-02-14T03:09:30.504Z,57.40
2023-02-14T03:12:07.413Z,57.40
2023-02-14T03:14:47.911Z,59.47
2023-02-14T03:17:39.849Z,59.17
2023-02-14T03:20:18.892Z,58.23
2023-02-14T03:23:01.396Z,59.53
2023-02-14T03:25:50.360Z,53.80
2023-02-14T03:28:36.215Z,58.57
2023-02-14T03:31:14.317Z,56.10
2023-02-14T03:34:15.969Z,62.13
2023-02-14T03:37:11.129Z,52.87
2023-02-14T03:40:01.905Z,50.07
2023-02-14T03:42:40.508Z,54.73
2023-02-14T03:45:13.149Z,52.07
2023-02-14T03:47:43.477Z,43.97
2023-02-14T03:50:17.010Z,43.37
2023-02-14T03:52:46.328Z,46.80
2023-02-14T03:55:17.126Z,44.50
2023-02-14T03:58:01.512Z,43.27
2023-02-14T04:00:30.380Z,49.17
2023-02-14T04:03:02.346Z,46.63
2023-02-14T04:05:29.369Z,40.60
2023-02-14T04:07:58.116Z,37.93
2023-02-14T04:10:26.152Z,41.37
2023-02-14T04:12:53.534Z,43.83
2023-02-14T04:15:20.624Z,39.87
2023-02-14T04:18:05.906Z,42.97
2023-02-14T04:20:32.927Z,39.23
2023-02-14T04:23:02.323Z,40.20
2023-02-14T04:25:30.775Z,43.07
2023-02-14T04:27:57.707Z,42.60
2023-02-14T04:30:24.959Z,40.47
2023-02-14T04:32:52.081Z,45.43
2023-02-14T04:35:19.192Z,38.63
2023-02-14T04:37:46.174Z,39.53
2023-02-14T04:40:17.181Z,39.43
2023-02-14T04:42:47.415Z,39.40
2023-02-14T04:45:15.224Z,38.37
2023-02-14T04:47:42.237Z,37.30
2023-02-14T04:50:09.613Z,43.70
2023-02-14T04:52:36.520Z,39.93
2023-02-14T04:55:04.549Z,40.67
2023-02-14T04:57:31.803Z,41.43
2023-02-14T04:59:58.907Z,45.67
2023-02-14T05:02:26.171Z,39.43
2023-02-14T05:04:53.189Z,46.20
2023-02-14T05:07:20.100Z,35.00
2023-02-14T05:09:47.113Z,35.97
2023-02-14T05:12:15.519Z,41.33
2023-02-14T05:14:42.966Z,34.57
2023-02-14T05:17:09.969Z,34.80
2023-02-14T05:19:36.946Z,36.13
2023-02-14T05:22:04.185Z,35.57
2023-02-14T05:24:31.339Z,35.60
2023-02-14T05:26:58.281Z,40.90
2023-02-14T05:29:25.268Z,35.17
2023-02-14T05:31:52.262Z,42.37
2023-02-14T05:34:20.029Z,33.07
2023-02-14T05:36:48.324Z,33.40
2023-02-14T05:39:15.440Z,31.07
2023-02-14T05:41:42.422Z,35.70
2023-02-14T05:44:09.444Z,39.53
2023-02-14T05:46:36.435Z,35.47
2023-02-14T05:49:04.141Z,37.77
2023-02-14T05:51:31.201Z,30.43
2023-02-14T05:54:00.161Z,35.43
2023-02-14T05:56:27.510Z,35.93
2023-02-14T05:58:54.554Z,33.70
2023-02-14T06:01:21.544Z,33.37
2023-02-14T06:03:48.583Z,38.40
2023-02-14T06:06:15.494Z,35.37
2023-02-14T06:08:42.550Z,36.20
2023-02-14T06:11:09.543Z,34.47
2023-02-14T06:13:36.544Z,34.20
2023-02-14T06:16:05.026Z,33.73
2023-02-14T06:18:32.131Z,43.23
2023-02-14T06:20:59.439Z,33.80
2023-02-14T06:23:26.732Z,33.73
2023-02-14T06:25:53.625Z,35.40
2023-02-14T06:28:20.579Z,34.20
2023-02-14T06:30:47.873Z,38.80
2023-02-14T06:33:14.983Z,34.60
2023-02-14T06:35:41.931Z,33.37
2023-02-14T06:38:08.975Z,36.10
2023-02-14T06:40:35.860Z,32.37
2023-02-14T06:43:02.919Z,34.70
2023-02-14T06:45:29.885Z,35.83
2023-02-14T06:47:56.877Z,35.17
2023-02-14T06:50:23.872Z,35.53
2023-02-14T06:52:51.642Z,33.07
2023-02-14T06:55:18.941Z,35.93
2023-02-14T06:57:46.096Z,32.23
2023-02-14T07:00:15.008Z,32.93
2023-02-14T07:02:42.154Z,30.93
2023-02-14T07:05:09.190Z,30.67
2023-02-14T07:07:36.218Z,33.43
2023-02-14T07:10:03.493Z,33.00
2023-02-14T07:12:30.572Z,28.87
2023-02-14T07:14:57.556Z,33.30
2023-02-14T07:17:24.534Z,31.37
2023-02-14T07:19:51.479Z,35.43
2023-02-14T07:22:18.520Z,33.80
2023-02-14T07:24:45.694Z,33.70
2023-02-14T07:27:12.910Z,35.47
2023-02-14T07:29:40.039Z,30.63
2023-02-14T07:32:07.211Z,32.37
2023-02-14T07:34:34.434Z,39.67
2023-02-14T07:37:01.993Z,37.17
2023-02-14T07:39:29.004Z,38.83
2023-02-14T07:41:55.964Z,37.97
2023-02-14T07:44:27.765Z,39.50
2023-02-14T07:46:54.726Z,40.37
2023-02-14T07:49:22.374Z,43.27
2023-02-14T07:51:49.391Z,40.03
2023-02-14T07:54:16.346Z,43.80
2023-02-14T07:56:43.320Z,44.37
2023-02-14T07:59:10.323Z,52.87
2023-02-14T08:01:37.549Z,53.10
2023-02-14T08:04:04.950Z,47.97
2023-02-14T08:06:31.972Z,55.83
2023-02-14T08:08:59.521Z,59.70
2023-02-14T08:11:45.143Z,57.60
2023-02-14T08:14:12.198Z,58.03
2023-02-14T08:16:39.803Z,59.40
2023-02-14T08:19:06.853Z,57.93
2023-02-14T08:21:34.088Z,58.83
2023-02-14T08:24:01.113Z,61.23
2023-02-14T08:26:28.185Z,56.13
2023-02-14T08:28:55.195Z,61.17
2023-02-14T08:31:35.041Z,65.03
2023-02-14T08:34:07.160Z,65.03
2023-02-14T08:36:34.977Z,65.23
2023-02-14T08:39:04.270Z,73.07
2023-02-14T08:41:31.482Z,73.93
2023-02-14T08:43:58.888Z,75.20
2023-02-14T08:46:27.328Z,79.93
2023-02-14T08:48:55.011Z,78.00
2023-02-14T08:51:22.869Z,73.83
2023-02-14T08:53:51.940Z,81.27
2023-02-14T08:56:21.472Z,78.27
2023-02-14T08:58:51.683Z,81.37
2023-02-14T09:01:19.073Z,76.97
2023-02-14T09:03:46.191Z,76.23
2023-02-14T09:06:17.620Z,80.90
2023-02-14T09:08:45.300Z,82.00
2023-02-14T09:11:24.024Z,78.73
2023-02-14T09:13:53.291Z,78.30
2023-02-14T09:16:21.630Z,83.23
2023-02-14T09:18:49.151Z,82.67
2023-02-14T09:21:19.273Z,87.63
2023-02-14T09:23:46.405Z,76.97
2023-02-14T09:26:14.811Z,82.87
2023-02-14T09:28:42.326Z,83.83
2023-02-14T09:31:18.181Z,75.93
2023-02-14T09:33:47.217Z,77.47
2023-02-14T09:36:32.659Z,83.53
2023-02-14T09:38:59.717Z,84.50
2023-02-14T09:41:29.691Z,83.60
2023-02-14T09:44:19.445Z,83.63
2023-02-14T09:46:51.490Z,82.77
2023-02-14T09:49:22.581Z,87.87
2023-02-14T09:51:52.624Z,83.33
2023-02-14T09:54:27.935Z,86.37
2023-02-14T09:57:18.815Z,83.27
2023-02-14T09:59:48.717Z,81.87
2023-02-14T10:02:50.684Z,86.33
2023-02-14T10:05:25.398Z,80.80
2023-02-14T10:08:03.941Z,77.97
2023-02-14T10:10:42.809Z,78.20
2023-02-14T10:13:27.970Z,77.93
2023-02-14T10:16:26.857Z,79.10
2023-02-14T10:19:04.333Z,82.80
2023-02-14T10:21:42.729Z,75.47
2023-02-14T10:24:14.212Z,86.10
2023-02-14T10:26:41.693Z,83.53
2023-02-14T10:29:19.507Z,85.40
2023-02-14T10:32:02.379Z,75.13
2023-02-14T10:34:48.041Z,83.23
2023-02-14T10:37:17.978Z,83.30
2023-02-14T10:40:09.169Z,75.53
2023-02-14T10:42:57.775Z,75.57
2023-02-14T10:45:50.609Z,78.83
2023-02-14T10:48:32.376Z,73.83
2023-02-14T10:51:07.230Z,69.93
2023-02-14T10:53:44.538Z,72.93
2023-02-14T10:56:26.971Z,71.23
2023-02-14T10:58:56.745Z,65.67
2023-02-14T11:01:24.090Z,60.27
2023-02-14T11:04:04.224Z,56.97
2023-02-14T11:06:31.834Z,62.40
2023-02-14T11:08:59.027Z,61.13
2023-02-14T11:11:49.794Z,60.77
2023-02-14T11:14:32.393Z,56.73
2023-02-14T11:17:20.143Z,58.53
2023-02-14T11:20:06.379Z,67.10
2023-02-14T11:22:35.180Z,59.20
2023-02-14T11:25:08.039Z,65.07
2023-02-14T11:27:37.797Z,65.53
2023-02-14T11:30:18.769Z,59.97
2023-02-14T11:32:56.262Z,68.23
2023-02-14T11:35:37.120Z,63.10
2023-02-14T11:38:23.457Z,64.43
2023-02-14T11:40:56.271Z,65.73
2023-02-14T11:43:37.199Z,61.33
2023-02-14T11:46:24.684Z,61.73
2023-02-14T11:49:07.348Z,64.67
2023-02-14T11:51:37.710Z,58.07
2023-02-14T11:54:06.339Z,61.67
2023-02-14T11:56:47.030Z,62.80
2023-02-14T11:59:27.615Z,63.37
2023-02-14T12:01:56.189Z,68.63
2023-02-14T12:04:38.129Z,65.40
2023-02-14T12:07:20.056Z,64.30
2023-02-14T12:10:04.525Z,65.57
2023-02-14T12:12:31.577Z,67.90
2023-02-14T12:15:36.933Z,66.17
2023-02-14T12:18:45.646Z,65.83
2023-02-14T12:21:49.947Z,62.27
2023-02-14T12:24:28.192Z,69.13
2023-02-14T12:27:06.433Z,64.13
2023-02-14T12:29:58.975Z,71.77
2023-02-14T12:32:27.277Z,73.30
2023-02-14T12:35:02.094Z,60.70
2023-02-14T12:37:28.993Z,58.37
2023-02-14T12:40:32.966Z,61.97
2023-02-14T12:43:02.945Z,66.03
2023-02-14T12:45:51.473Z,71.17
2023-02-14T12:48:36.236Z,70.87
2023-02-14T12:51:10.578Z,64.73
2023-02-14T12:53:52.525Z,62.80
2023-02-14T12:56:53.557Z,67.17
2023-02-14T12:59:46.171Z,65.40
2023-02-14T13:02:38.598Z,66.97
2023-02-14T13:05:27.315Z,63.80
2023-02-14T13:08:26.028Z,67.33
2023-02-14T13:11:22.688Z,63.87
2023-02-14T13:14:06.121Z,73.60
2023-02-14T13:16:51.995Z,63.30
2023-02-14T13:19:39.195Z,68.70
2023-02-14T13:22:10.447Z,67.97
2023-02-14T13:24:43.806Z,66.90
2023-02-14T13:27:26.021Z,69.33
2023-02-14T13:30:04.266Z,70.53
2023-02-14T13:32:39.032Z,71.83
2023-02-14T13:35:07.828Z,73.00
2023-02-14T13:37:36.874Z,70.07
2023-02-14T13:40:17.296Z,78.87
2023-02-14T13:42:47.088Z,69.17
2023-02-14T13:45:35.430Z,69.60
2023-02-14T13:48:24.611Z,69.77
2023-02-14T13:50:58.525Z,66.50
2023-02-14T13:53:48.353Z,69.47
2023-02-14T13:56:15.518Z,65.07
2023-02-14T13:58:52.803Z,75.80
2023-02-14T14:01:48.331Z,73.20
2023-02-14T14:04:33.278Z,68.33
2023-02-14T14:07:03.067Z,70.67
2023-02-14T14:09:42.356Z,70.00
2023-02-14T14:12:27.659Z,67.57
2023-02-14T14:15:06.905Z,69.70
2023-02-14T14:17:47.679Z,73.97
2023-02-14T14:20:20.351Z,71.23
2023-02-14T14:23:01.263Z,76.67
2023-02-14T14:25:31.012Z,74.07
2023-02-14T14:27:59.037Z,72.87
2023-02-14T14:30:32.910Z,69.33
2023-02-14T14:33:38.945Z,76.40
2023-02-14T14:36:10.325Z,69.00
2023-02-14T14:38:51.542Z,74.10
2023-02-14T14:41:18.741Z,71.20
2023-02-14T14:43:47.069Z,71.27
2023-02-14T14:46:16.355Z,63.03
2023-02-14T14:48:51.680Z,64.90
2023-02-14T14:51:32.056Z,69.70
2023-02-14T14:54:03.965Z,68.80
2023-02-14T14:56:38.016Z,64.37
2023-02-14T14:59:26.164Z,69.13
2023-02-14T15:01:54.501Z,71.57
2023-02-14T15:04:39.624Z,66.83
2023-02-14T15:07:24.010Z,72.77
2023-02-14T15:09:51.416Z,73.30
2023-02-14T15:12:42.436Z,69.87
2023-02-14T15:15:15.565Z,76.27
2023-02-14T15:17:43.872Z,73.10
2023-02-14T15:20:22.848Z,77.37
2023-02-14T15:22:53.786Z,66.20
2023-02-14T15:25:26.818Z,70.40
2023-02-14T15:27:54.068Z,71.13
2023-02-14T15:30:29.728Z,73.93
2023-02-14T15:32:57.532Z,67.17
2023-02-14T15:35:31.696Z,77.63
2023-02-14T15:38:02.622Z,68.47
2023-02-14T15:40:32.697Z,71.40
2023-02-14T15:43:31.971Z,69.47
2023-02-14T15:46:20.026Z,65.60
2023-02-14T15:48:47.582Z,70.40
2023-02-14T15:51:22.599Z,72.70
2023-02-14T15:53:55.689Z,71.40
2023-02-14T15:56:33.536Z,63.13
2023-02-14T15:59:12.408Z,72.43
2023-02-14T16:01:39.743Z,73.33
2023-02-14T16:04:08.639Z,67.60
2023-02-14T16:06:44.458Z,66.33
2023-02-14T16:09:26.735Z,70.00
2023-02-14T16:11:54.297Z,64.97
2023-02-14T16:14:27.612Z,61.17
2023-02-14T16:17:14.747Z,69.03
2023-02-14T16:19:44.954Z,64.33
2023-02-14T16:22:23.813Z,68.73
2023-02-14T16:24:50.951Z,75.87
2023-02-14T16:27:17.924Z,71.13
2023-02-14T16:29:45.049Z,75.27
2023-02-14T16:32:21.577Z,65.93
2023-02-14T16:34:49.294Z,70.70
2023-02-14T16:37:23.575Z,72.27
2023-02-14T16:39:54.172Z,72.57
2023-02-14T16:42:21.412Z,81.63
2023-02-14T16:44:48.598Z,79.40
2023-02-14T16:47:17.817Z,81.87
2023-02-14T16:49:44.828Z,88.57
2023-02-14T16:52:15.998Z,76.87
2023-02-14T16:54:43.286Z,82.75
2023-02-14T16:57:37.400Z,78.27
2023-02-14T17:00:06.570Z,80.17
2023-02-14T17:02:36.842Z,78.70
2023-02-14T17:05:05.034Z,82.80
2023-02-14T17:07:33.288Z,87.67
2023-02-14T17:10:05.641Z,87.03
2023-02-14T17:12:37.643Z,82.70
2023-02-14T17:15:15.186Z,80.73
2023-02-14T17:17:42.969Z,82.20
2023-02-14T17:20:10.407Z,80.23
2023-02-14T17:22:37.724Z,89.20
2023-02-14T17:25:06.190Z,72.93
2023-02-14T17:27:33.241Z,80.10
2023-02-14T17:30:00.270Z,78.33
2023-02-14T17:32:27.600Z,77.43
2023-02-14T17:34:54.741Z,77.90
2023-02-14T17:37:21.869Z,84.63
2023-02-14T17:39:48.859Z,83.30
2023-02-14T17:42:15.859Z,82.13
2023-02-14T17:44:42.750Z,80.63
2023-02-14T17:47:09.872Z,82.23
2023-02-14T17:49:36.823Z,96.53
2023-02-14T17:52:04.176Z,82.93
2023-02-14T17:54:31.242Z,78.37
2023-02-14T17:56:58.265Z,89.03
2023-02-14T17:59:25.764Z,81.30
2023-02-14T18:01:52.896Z,81.23
2023-02-14T18:04:19.848Z,78.50
2023-02-14T18:06:46.881Z,84.00
2023-02-14T18:09:14.203Z,90.67
2023-02-14T18:11:42.305Z,97.17
2023-02-14T18:14:09.440Z,91.47
2023-02-14T18:16:40.484Z,86.70
2023-02-14T18:19:10.097Z,78.00
2023-02-14T18:21:40.089Z,87.57
2023-02-14T18:24:08.211Z,86.63
2023-02-14T18:26:37.884Z,88.90
2023-02-14T18:29:06.683Z,76.70
2023-02-14T18:31:38.792Z,83.07
2023-02-14T18:34:06.255Z,89.53
2023-02-14T18:36:35.967Z,91.57
2023-02-14T18:39:04.247Z,90.83
2023-02-14T18:41:31.435Z,85.07
2023-02-14T18:43:58.795Z,79.27
2023-02-14T18:46:28.348Z,77.20
2023-02-14T18:48:58.406Z,69.10
2023-02-14T18:51:28.228Z,81.67
2023-02-14T18:54:00.298Z,73.20
2023-02-14T18:56:30.728Z,77.20
2023-02-14T18:59:00.649Z,68.50
2023-02-14T19:01:30.664Z,72.80
2023-02-14T19:03:59.836Z,84.30
2023-02-14T19:06:29.451Z,81.27
2023-02-14T19:08:57.074Z,85.90
2023-02-14T19:11:31.442Z,84.10
2023-02-14T19:14:00.576Z,80.53
2023-02-14T19:16:33.482Z,91.27
2023-02-14T19:19:02.829Z,91.83
2023-02-14T19:21:34.922Z,93.13
2023-02-14T19:24:03.941Z,79.73
2023-02-14T19:26:34.962Z,94.50
2023-02-14T19:29:05.719Z,86.73
2023-02-14T19:31:36.565Z,83.37
2023-02-14T19:34:06.169Z,70.47
2023-02-14T19:36:36.269Z,82.70
2023-02-14T19:39:04.574Z,81.07
2023-02-14T19:41:34.569Z,73.30
2023-02-14T19:44:04.763Z,86.20
2023-02-14T19:46:32.496Z,88.90
2023-02-14T19:49:00.609Z,76.00
2023-02-14T19:51:33.493Z,99.30
2023-02-14T19:54:02.784Z,77.33
2023-02-14T19:56:33.024Z,75.83
2023-02-14T19:59:00.437Z,79.93
2023-02-14T20:01:33.277Z,81.63
2023-02-14T20:04:00.795Z,81.30
2023-02-14T20:06:29.455Z,95.23
2023-02-14T20:08:56.569Z,88.00
2023-02-14T20:11:49.845Z,93.23
2023-02-14T20:14:23.380Z,94.93
2023-02-14T20:16:51.953Z,93.23
2023-02-14T20:19:22.674Z,91.03
2023-02-14T20:21:50.788Z,96.87
2023-02-14T20:24:23.409Z,101.93
2023-02-14T20:26:52.077Z,95.63
2023-02-14T20:29:20.158Z,103.77
2023-02-14T20:31:50.424Z,98.40
2023-02-14T20:34:18.261Z,94.27
2023-02-14T20:36:49.706Z,96.47
2023-02-14T20:39:16.809Z,102.10
2023-02-14T20:41:46.410Z,111.00
2023-02-14T20:44:19.271Z,97.20
2023-02-14T20:46:51.802Z,111.33
2023-02-14T20:49:20.449Z,94.30
2023-02-14T20:51:49.700Z,103.77
2023-02-14T20:54:21.290Z,103.10
2023-02-14T20:56:48.594Z,101.43
2023-02-14T20:59:15.588Z,93.60
2023-02-14T21:01:42.750Z,94.43
2023-02-14T21:04:09.720Z,103.97
2023-02-14T21:06:39.930Z,96.70
2023-02-14T21:09:07.336Z,98.27
2023-02-14T21:11:34.342Z,94.33
2023-02-14T21:14:02.476Z,95.73
2023-02-14T21:16:30.259Z,93.70
2023-02-14T21:18:59.373Z,89.60
2023-02-14T21:21:33.857Z,93.27
2023-02-14T21:24:07.035Z,93.70
2023-02-14T21:26:34.609Z,106.57
2023-02-14T21:29:01.703Z,104.30
2023-02-14T21:31:28.829Z,96.87
2023-02-14T21:33:58.103Z,94.23
2023-02-14T21:36:27.461Z,96.03
2023-02-14T21:38:59.222Z,95.67
2023-02-14T21:41:29.377Z,96.30
2023-02-14T21:43:58.583Z,96.37
2023-02-14T21:46:38.562Z,97.03
2023-02-14T21:49:24.979Z,106.13
2023-02-14T21:51:52.209Z,95.70
2023-02-14T21:54:19.228Z,84.37
2023-02-14T21:56:46.349Z,92.97
2023-02-14T21:59:13.725Z,86.30
2023-02-14T22:01:42.208Z,99.67
2023-02-14T22:04:11.486Z,90.67
2023-02-14T22:06:40.074Z,90.10
2023-02-14T22:09:07.493Z,88.27
2023-02-14T22:11:34.947Z,87.07
2023-02-14T22:14:02.080Z,86.83
2023-02-14T22:16:29.406Z,94.13
2023-02-14T22:18:56.416Z,90.07
2023-02-14T22:21:25.413Z,91.53
2023-02-14T22:23:53.532Z,101.87
2023-02-14T22:26:25.661Z,100.03
2023-02-14T22:28:59.259Z,95.43
2023-02-14T22:31:29.863Z,86.87
2023-02-14T22:33:57.147Z,83.97
2023-02-14T22:36:24.629Z,84.10
2023-02-14T22:38:51.640Z,93.07
2023-02-14T22:41:24.064Z,91.60
2023-02-14T22:43:52.861Z,86.73
2023-02-14T22:46:27.961Z,89.70
2023-02-14T22:48:56.709Z,83.67
2023-02-14T22:51:27.745Z,89.00
2023-02-14T22:54:00.982Z,94.47
2023-02-14T22:56:40.038Z,77.33
2023-02-14T22:59:12.911Z,80.73
2023-02-14T23:01:40.154Z,99.00
2023-02-14T23:04:07.196Z,83.83
2023-02-14T23:06:36.268Z,84.43
2023-02-14T23:09:05.927Z,76.53
2023-02-14T23:11:35.522Z,83.47
2023-02-14T23:14:21.976Z,83.67
2023-02-14T23:17:08.025Z,83.50
2023-02-14T23:19:54.804Z,80.03
2023-02-14T23:22:27.559Z,81.57
2023-02-14T23:24:59.480Z,75.70
2023-02-14T23:27:32.438Z,77.57
2023-02-14T23:30:00.217Z,90.63
2023-02-14T23:32:27.408Z,82.33
2023-02-14T23:34:54.634Z,83.33
2023-02-14T23:37:21.590Z,90.07
2023-02-14T23:39:48.654Z,73.63
2023-02-14T23:42:16.217Z,83.20
2023-02-14T23:44:44.672Z,81.27
2023-02-14T23:47:13.561Z,88.80
2023-02-14T23:49:41.164Z,80.67
2023-02-14T23:52:10.496Z,84.97
2023-02-14T23:54:38.899Z,80.77
2023-02-14T23:57:07.550Z,76.63
2023-02-14T23:59:34.971Z,79.17
